Latest Coastal Weather Observations for Taree Airport

IDN60701

Issued at 8:41 am EDT Sunday 22 January 2017 (issued every 10 minutes, with the page automatically refreshed every 10 minutes)

About coastal observations | Map of coastal stations | Coastal observations for NSW | Marine services | Other Formats
Station Details ID: 060141 Name: TAREE AIRPORT AWS Lat: -31.89 Lon: 152.51 Height: 8.0 m
Data from the previous 72 hours. | See also: Recent months at Taree Airport
Date/Time
EDT
Temp
°C
Wind Pressure Rain since
9am
mm
Weather Cloud Vis
km
Sea
Height
m
Swell
Dir  Spd
kts
Gust
kts
hPa Trend Height
m
Period
s
Dir
22/08:30am 21.3 WSW 5 7 1017.4 - 0.0 - Partly cloudy 10 - - - -
22/08:00am 19.9 WSW 4 5 1017.3 - 0.0 - Partly cloudy 10 - - - -
22/07:30am 17.9 W 4 6 1017.1 - 0.0 - - 10 - - - -
22/07:00am 16.7 WNW 4 5 1016.8 - 0.0 - - 10 - - - -
22/06:30am 16.9 W 5 6 1016.4 - 0.0 - Partly cloudy 10 - - - -
22/06:00am 17.1 WNW 4 5 1016.1 - 0.0 - Mostly cloudy 10 - - - -
22/05:30am 17.4 W 5 7 1015.8 - 0.0 - Cloudy 10 - - - -
22/05:00am 16.9 W 5 6 1015.6 - 0.0 - Cloudy 10 - - - -
22/04:30am 16.9 W 6 7 1015.3 - 0.0 - Cloudy 10 - - - -
22/04:00am 16.8 W 4 5 1015.3 - 0.0 - Partly cloudy 10 - - - -
22/03:30am 16.9 WNW 4 5 1015.3 - 0.0 - - 10 - - - -
22/03:00am 16.4 NNW 2 5 1015.4 - 0.0 - - 10 - - - -
22/02:30am 17.6 W 6 7 1015.6 - 0.0 - - 10 - - - -
22/02:00am 17.6 W 5 6 1015.8 - 0.0 - - 10 - - - -
22/01:30am 18.4 WNW 1 5 1016.0 - 0.0 - - 10 - - - -
22/01:00am 18.5 NW 5 5 1016.1 - 0.0 - Partly cloudy 10 - - - -
22/12:30am 19.3 W 3 5 1016.2 - 0.0 - Partly cloudy 10 - - - -
22/12:00am 19.3 NW 4 6 1016.3 - 0.0 - Partly cloudy 10 - - - -
 
Date/Time
EDT
Temp
°C
Wind Pressure Rain since
9am
mm
Weather Cloud Vis
km
Sea
Height
m
Swell
Dir  Spd
kts
Gust
kts
hPa Trend Height
m
Period
s
Dir
21/11:39pm 19.3 NW 4 4 1016.3 - 0.0 - - 9 - - - -
21/11:30pm 18.8 NW 4 6 1016.4 - 0.0 - - 6 - - - -
21/11:22pm 18.9 NW 5 6 1016.3 - 0.0 - - 5 - - - -
21/11:00pm 18.3 NNW 3 4 1016.2 - 0.0 - - 10 - - - -
21/10:30pm 19.4 NW 3 4 1016.0 - 0.0 - - 10 - - - -
21/10:00pm 20.9 SW 3 4 1015.8 - 0.0 - - 10 - - - -
21/09:30pm 20.9 S 4 5 1015.4 - 0.0 - - 10 - - - -
21/09:00pm 21.6 S 6 8 1014.7 - 0.0 - - 10 - - - -
21/08:30pm 22.2 SSE 7 9 1014.3 - 0.0 - - 10 - - - -
21/08:00pm 22.7 SSE 7 10 1013.6 - 0.0 - - 10 - - - -
21/07:30pm 23.6 SSE 9 13 1013.4 - 0.0 - - 10 - - - -
21/07:00pm 24.7 SSE 9 11 1012.7 - 0.0 - - 10 - - - -
21/06:30pm 25.1 SE 13 17 1012.3 - 0.0 - - 10 - - - -
21/06:00pm 25.5 SE 13 18 1011.8 - 0.0 - - 10 - - - -
21/05:30pm 26.0 SSE 13 16 1011.4 - 0.0 - Partly cloudy 10 - - - -
21/05:00pm 26.0 SE 11 16 1011.2 - 0.0 - Partly cloudy 10 - - - -
21/04:30pm 26.3 SSE 13 18 1011.1 - 0.0 - Partly cloudy 10 - - - -
21/04:00pm 26.4 S 14 20 1011.0 - 0.0 - Partly cloudy 10 - - - -
21/03:30pm 25.5 SSE 14 19 1011.0 - 0.0 - Partly cloudy 10 - - - -
21/03:00pm 26.2 SSE 13 17 1010.9 - 0.0 - Cloudy 10 - - - -
21/02:30pm 26.2 SSE 12 18 1010.8 - 0.0 - Partly cloudy 10 - - - -
21/02:00pm 26.2 SSE 13 18 1010.6 - 0.0 - Partly cloudy 10 - - - -
21/01:30pm 25.7 SE 13 17 1010.6 - 0.0 - Partly cloudy 10 - - - -
21/01:00pm 25.7 SSW 11 17 1010.6 - 0.0 - Partly cloudy 10 - - - -
21/12:30pm 26.0 S 12 17 1010.5 - 0.0 - Partly cloudy 10 - - - -
21/12:00pm 24.4 S 12 18 1010.4 - 0.0 - Cloudy 10 - - - -
21/11:30am 24.5 SSW 11 16 1010.2 - 0.0 - Partly cloudy 10 - - - -
21/11:00am 24.8 S 11 16 1009.9 - 0.0 - Partly cloudy 10 - - - -
21/10:30am 25.7 SSE 11 15 1009.8 - 0.0 - Partly cloudy 10 - - - -
21/10:00am 24.2 SSE 11 15 1009.7 - 0.0 - Partly cloudy 10 - - - -
21/09:30am 24.5 SSW 7 10 1009.5 - 0.0 - Partly cloudy 10 - - - -
21/09:00am 23.8 SSW 8 13 1009.2 - 5.4 - Mostly clear 10 - - - -
21/08:30am 23.6 SW 11 15 1009.0 - 5.4 - Partly cloudy 10 - - - -
21/08:00am 23.2 SSW 9 13 1008.7 - 5.4 - Partly cloudy 10 - - - -
21/07:30am 22.5 SW 11 14 1008.3 - 5.4 - - 10 - - - -
21/07:00am 22.1 SSW 9 13 1007.8 - 5.4 - Partly cloudy 10 - - - -
21/06:30am 22.0 SSW 8 10 1007.2 - 5.4 - Partly cloudy 10 - - - -
21/06:00am 21.9 SW 7 10 1006.6 - 5.4 - Cloudy 10 - - - -
21/05:30am 21.9 SW 7 10 1005.8 - 5.4 - Partly cloudy 10 - - - -
21/05:00am 22.1 SW 7 10 1005.2 - 5.4 - Partly cloudy 10 - - - -
21/04:30am 22.3 SSW 9 12 1004.8 - 5.4 - Partly cloudy 10 - - - -
21/04:00am 22.5 SSW 9 13 1004.3 - 5.4 - Partly cloudy 10 - - - -
21/03:30am 22.7 S 13 20 1003.7 - 5.4 - Partly cloudy 10 - - - -
21/03:00am 23.1 S 19 29 1003.2 - 5.4 Recent precip. Cloudy 10 - - - -
21/02:48am 23.4 S 18 28 1002.9 - 5.4 - Partly cloudy 10 - - - -
21/02:30am 23.6 S 18 26 1002.7 - 5.4 - Partly cloudy 10 - - - -
21/02:00am 24.4 S 19 30 1001.7 - 5.4 - Partly cloudy 10 - - - -
21/01:59am 24.3 S 18 30 1001.7 - 5.4 - Partly cloudy 10 - - - -
21/01:50am 24.5 S 12 19 1001.6 - 5.4 - Partly cloudy 10 - - - -
21/01:30am 23.8 SSW 6 8 1000.6 - 5.4 - Partly cloudy 10 - - - -
21/01:00am 24.0 CALM 0 0 1000.1 - 5.4 - Partly cloudy 10 - - - -
21/12:30am 24.0 NNE 2 3 999.4 - 5.4 - Partly cloudy 10 - - - -
21/12:00am 24.2 ESE 6 9 999.2 - 5.4 Rain Cloudy 10 - - - -
 
Date/Time
EDT
Temp
°C
Wind Pressure Rain since
9am
mm
Weather Cloud Vis
km
Sea
Height
m
Swell
Dir  Spd
kts
Gust
kts
hPa Trend Height
m
Period
s
Dir
20/11:30pm 24.5 SE 5 6 998.7 - 5.4 - Partly cloudy 10 - - - -
20/11:00pm 24.6 S 6 7 998.0 - 5.4 - Partly cloudy 10 - - - -
20/10:30pm 24.5 WNW 5 6 997.6 - 5.0 - Partly cloudy 10 - - - -
20/10:00pm 24.5 WSW 4 5 997.2 - 5.0 - - 10 - - - -
20/09:30pm 24.5 WNW 5 7 997.3 - 5.0 - - 10 - - - -
20/09:00pm 24.2 N 5 7 996.6 - 5.0 - - 10 - - - -
20/08:30pm 24.0 NNE 4 7 996.9 - 5.0 - - 10 - - - -
20/08:00pm 24.5 CALM 0 0 997.3 - 5.0 - Partly cloudy 10 - - - -
20/07:30pm 24.7 N 2 4 997.2 - 5.0 - - 10 - - - -
20/07:00pm 24.6 NNE 4 6 997.0 - 5.0 - - 10 - - - -
20/06:30pm 24.6 NE 6 7 996.9 - 5.0 - - 10 - - - -
20/06:00pm 24.4 NE 4 6 997.5 - 4.8 Showers Mostly cloudy 10 - - - -
20/05:30pm 24.5 NNE 6 10 997.2 - 4.4 - Partly cloudy 10 - - - -
20/05:00pm 24.5 NNE 7 9 997.3 - 4.2 - Partly cloudy 10 - - - -
20/04:45pm 24.4 NNE 7 11 997.6 - 4.2 - Partly cloudy 10 - - - -
20/04:30pm 24.7 N 7 12 998.1 - 4.2 - Partly cloudy 5 - - - -
20/04:14pm 25.2 N 5 6 998.4 - 2.0 - Partly cloudy 5 - - - -
20/04:00pm 26.1 E 4 5 998.5 - 0.6 - Partly cloudy 9 - - - -
20/03:30pm 27.5 ENE 6 7 998.4 - 0.0 - Partly cloudy 10 - - - -
20/03:00pm 28.5 ENE 5 7 998.0 - 0.0 Rain Partly cloudy 10 - - - -
20/02:30pm 29.1 NNE 5 9 997.9 - 0.0 - Partly cloudy 10 - - - -
20/02:00pm 29.5 NNE 7 9 998.0 - 0.0 - - 10 - - - -
20/01:30pm 29.8 NNE 9 14 998.4 - 0.0 - - 10 - - - -
20/01:00pm 28.4 NNE 9 14 998.9 - 0.0 - - 10 - - - -
20/12:30pm 28.9 NE 9 14 999.4 - 0.0 - - 10 - - - -
20/12:00pm 28.7 NNE 10 15 999.9 - 0.0 - - 10 - - - -
20/11:30am 28.3 NNE 11 16 1000.4 - 0.0 - - 10 - - - -
20/11:00am 27.4 NNE 10 17 1001.1 - 0.0 - - 10 - - - -
20/10:30am 26.6 NNE 11 19 1001.9 - 0.0 - - 10 - - - -
20/10:00am 24.8 NNE 10 17 1002.7 - 0.0 - - 10 - - - -
20/09:30am 24.6 NNE 12 19 1003.4 - 0.0 - Partly cloudy 10 - - - -
20/09:00am 25.0 NNE 9 17 1004.3 - 0.0 - Mostly clear 10 - - - -
20/08:30am 25.0 NE 12 18 1004.3 - 0.0 - - 10 - - - -
20/08:00am 24.0 NNE 10 17 1004.7 - 0.0 - - 10 - - - -
20/07:30am 23.1 NNE 9 16 1005.2 - 0.0 - Partly cloudy 10 - - - -
20/07:00am 22.3 NE 9 14 1005.3 - 0.0 - - 10 - - - -
20/06:30am 21.5 NE 9 16 1005.5 - 0.0 - - 10 - - - -
20/06:00am 21.3 NNE 9 16 1005.2 - 0.0 - - 10 - - - -
20/05:30am 21.2 NE 9 14 1005.4 - 0.0 - - 10 - - - -
20/05:00am 20.9 NE 8 11 1005.6 - 0.0 - Partly cloudy 10 - - - -
20/04:30am 20.4 NE 6 8 1006.2 - 0.0 - - 10 - - - -
20/04:00am 20.1 NE 7 9 1006.4 - 0.0 - - 10 - - - -
20/03:30am 19.9 NE 7 8 1007.2 - 0.0 - Partly cloudy 10 - - - -
20/03:00am 20.1 NE 7 9 1008.1 - 0.0 - Cloudy 10 - - - -
20/02:30am 20.6 NNE 5 8 1008.8 - 0.0 - Cloudy 10 - - - -
20/02:00am 20.3 NNE 4 6 1009.4 - 0.0 - Partly cloudy 10 - - - -
20/01:30am 20.0 NNE 4 6 1009.5 - 0.0 - - 10 - - - -
20/01:00am 20.5 NNE 5 9 1009.8 - 0.0 - Partly cloudy 10 - - - -
20/12:30am 21.0 NNE 6 10 1010.4 - 0.0 - Partly cloudy 10 - - - -
20/12:00am 21.1 NNE 5 8 1010.6 - 0.0 - Cloudy 10 - - - -
 
Date/Time
EDT
Temp
°C
Wind Pressure Rain since
9am
mm
Weather Cloud Vis
km
Sea
Height
m
Swell
Dir  Spd
kts
Gust
kts
hPa Trend Height
m
Period
s
Dir
19/11:30pm 21.3 N 4 5 1011.0 - 0.0 - Partly cloudy 10 - - - -
19/11:00pm 21.4 NNE 4 6 1011.2 - 0.0 - Partly cloudy 10 - - - -
19/10:30pm 21.4 NNE 4 5 1011.4 - 0.0 - Partly cloudy 10 - - - -
19/10:00pm 21.7 NNE 5 6 1011.5 - 0.0 - Cloudy 10 - - - -
19/09:30pm 21.6 NE 6 7 1011.5 - 0.0 - Cloudy 10 - - - -
19/09:00pm 21.8 NE 7 9 1011.5 - 0.0 - Cloudy 10 - - - -
19/08:30pm 22.2 ENE 7 9 1011.5 - 0.0 - Cloudy 10 - - - -
19/08:00pm 22.4 ENE 6 8 1011.5 - 0.0 - Cloudy 10 - - - -
19/07:30pm 22.6 ENE 7 9 1011.4 - 0.0 - Cloudy 10 - - - -
19/07:00pm 22.8 ENE 9 15 1011.4 - 0.0 - Cloudy 10 - - - -
19/06:30pm 23.1 ENE 8 11 1011.3 - 0.0 - Cloudy 10 - - - -
19/06:00pm 23.1 ENE 8 13 1011.2 - 0.0 - Cloudy 10 - - - -
19/05:30pm 23.3 ENE 9 12 1011.3 - 0.0 - Cloudy 10 - - - -
19/05:00pm 23.3 ENE 8 13 1011.5 - 0.0 - Cloudy 10 - - - -
19/04:30pm 23.2 E 9 14 1011.9 - 0.0 - Cloudy 10 - - - -
19/04:00pm 23.1 ENE 9 12 1012.3 - 0.0 - Partly cloudy 10 - - - -
19/03:30pm 22.8 ENE 9 13 1012.7 - 0.0 - Partly cloudy 10 - - - -
19/03:00pm 22.3 E 7 10 1012.9 - 0.0 - Cloudy 10 - - - -
19/02:30pm 21.9 E 10 13 1013.2 - 0.0 - Partly cloudy 10 - - - -
19/02:00pm 22.2 ESE 9 13 1013.3 - 0.0 - Partly cloudy 10 - - - -
19/01:53pm 22.2 ESE 9 13 1013.4 - 0.0 - Partly cloudy 10 - - - -
19/01:30pm 22.2 E 9 13 1013.6 - 0.0 - Partly cloudy 10 - - - -
19/01:00pm 21.2 E 8 11 1013.9 - 0.0 - Partly cloudy 10 - - - -
19/12:40pm 21.5 E 9 13 1014.0 - 0.0 - Partly cloudy 10 - - - -
19/12:32pm 20.7 ESE 8 13 1014.1 - 0.0 - Partly cloudy 7 - - - -
19/12:30pm 20.8 ESE 8 11 1014.2 - 0.0 - Partly cloudy 5 - - - -
19/12:06pm 21.0 ESE 8 11 1014.2 - 0.0 - Partly cloudy 5 - - - -
19/12:00pm 20.7 ESE 9 12 1014.4 - 0.0 Recent precip. Cloudy 10 - - - -
19/11:37am 21.3 ESE 7 10 1014.4 - 0.0 - Partly cloudy 7 - - - -
19/11:30am 21.2 E 5 9 1014.4 - 0.0 - Partly cloudy 6 - - - -
19/11:16am 21.0 SE 8 10 1014.4 - 0.0 - Partly cloudy 5 - - - -
19/11:00am 21.8 SSE 8 12 1014.4 - 0.0 - Partly cloudy 10 - - - -
19/10:30am 22.0 SSE 6 8 1014.3 - 0.0 - Cloudy 10 - - - -
19/10:00am 21.2 S 8 10 1014.5 - 0.0 - Partly cloudy 10 - - - -
19/09:30am 22.0 NNW 3 5 1014.5 - 0.0 - Partly cloudy 10 - - - -
19/09:00am 21.1 NW 4 5 1014.6 - 4.6 Recent precip. Cloudy 10 - - - -

Other Formats:

Comma delimited format used in spreadsheet applications
http://www.bom.gov.au/fwo/IDN60701/IDN60701.95784.axf

JavaScript Object Notation format (JSON) in row-major order
http://www.bom.gov.au/fwo/IDN60701/IDN60701.95784.json